createdAt,value
2019-03-03T00:04:55.815Z,1.70
2019-03-03T00:09:59.680Z,1.70
2019-03-03T00:15:03.754Z,1.70
2019-03-03T00:20:08.099Z,1.70
2019-03-03T00:25:11.234Z,1.70
2019-03-03T00:30:14.610Z,1.80
2019-03-03T00:35:18.524Z,1.90
2019-03-03T00:40:47.468Z,1.90
2019-03-03T00:45:56.790Z,1.80
2019-03-03T00:51:06.020Z,1.90
2019-03-03T00:56:15.770Z,1.90
2019-03-03T01:01:42.246Z,1.90
2019-03-03T01:07:04.097Z,2.00
2019-03-03T01:12:15.798Z,2.10
2019-03-03T01:17:41.305Z,2.20
2019-03-03T01:23:06.866Z,2.20
2019-03-03T01:28:16.717Z,2.20
2019-03-03T01:33:20.656Z,3.20
2019-03-03T01:38:23.801Z,2.20
2019-03-03T01:43:27.151Z,2.20
2019-03-03T01:48:31.007Z,2.10
2019-03-03T01:53:34.426Z,2.10
2019-03-03T01:58:40.552Z,2.20
2019-03-03T02:03:46.270Z,2.10
2019-03-03T02:08:49.997Z,2.20
2019-03-03T02:14:07.278Z,2.10
2019-03-03T02:19:10.589Z,3.10
2019-03-03T02:24:15.911Z,2.00
2019-03-03T02:29:20.183Z,2.10
2019-03-03T02:34:24.543Z,2.10
2019-03-03T02:39:28.441Z,2.10
2019-03-03T02:44:32.011Z,2.10
2019-03-03T02:49:35.383Z,2.10
2019-03-03T02:54:38.764Z,2.10
2019-03-03T02:59:42.928Z,2.20
2019-03-03T03:04:46.314Z,2.20
2019-03-03T03:10:17.886Z,2.30
2019-03-03T03:15:47.292Z,2.30
2019-03-03T03:20:58.053Z,2.30
2019-03-03T03:26:30.093Z,2.40
2019-03-03T03:31:43.140Z,2.50
2019-03-03T03:37:13.282Z,2.50
2019-03-03T03:42:38.757Z,2.60
2019-03-03T03:47:58.816Z,2.60
2019-03-03T03:53:23.146Z,2.80
2019-03-03T03:58:46.134Z,2.70
2019-03-03T04:03:59.970Z,2.80
2019-03-03T04:09:28.965Z,2.80
2019-03-03T04:14:42.623Z,2.90
2019-03-03T04:20:08.149Z,2.90
2019-03-03T04:25:34.172Z,2.90
2019-03-03T04:30:49.792Z,2.90
2019-03-03T04:36:25.123Z,2.70
2019-03-03T04:41:35.623Z,2.50
2019-03-03T04:46:46.669Z,2.30
2019-03-03T04:52:00.916Z,2.20
2019-03-03T04:57:23.980Z,2.10
2019-03-03T05:02:40.163Z,2.00
2019-03-03T05:08:01.797Z,1.90
2019-03-03T05:13:40.009Z,2.00
2019-03-03T05:19:11.859Z,2.20
2019-03-03T05:24:15.254Z,2.30
2019-03-03T05:29:18.699Z,2.20
2019-03-03T05:34:22.709Z,1.80
2019-03-03T05:39:26.862Z,2.20
2019-03-03T05:44:30.452Z,2.40
2019-03-03T05:49:35.713Z,2.60
2019-03-03T05:54:39.597Z,2.80
2019-03-03T05:59:42.935Z,2.80
2019-03-03T06:04:47.171Z,2.90
2019-03-03T06:09:50.531Z,3.10
2019-03-03T06:14:53.721Z,3.20
2019-03-03T06:19:57.042Z,3.30
2019-03-03T06:25:00.458Z,3.40
2019-03-03T06:30:05.492Z,3.50
2019-03-03T06:35:09.702Z,3.60
2019-03-03T06:40:13.004Z,3.80
2019-03-03T06:45:16.335Z,4.00
2019-03-03T06:50:19.969Z,4.20
2019-03-03T06:55:23.274Z,4.40
2019-03-03T07:00:26.889Z,4.60
2019-03-03T07:05:30.334Z,4.80
2019-03-03T07:10:33.648Z,4.90
2019-03-03T07:15:37.732Z,5.20
2019-03-03T07:20:41.379Z,5.30
2019-03-03T07:25:45.774Z,5.40
2019-03-03T07:30:49.797Z,5.60
2019-03-03T07:35:52.917Z,5.90
2019-03-03T07:40:57.066Z,6.30
2019-03-03T07:46:00.661Z,6.70
2019-03-03T07:51:03.943Z,7.00
2019-03-03T07:56:07.712Z,7.10
2019-03-03T08:01:11.350Z,7.30
2019-03-03T08:06:15.370Z,7.30
2019-03-03T08:11:19.494Z,7.70
2019-03-03T08:16:24.958Z,8.10
2019-03-03T08:21:29.997Z,8.60
2019-03-03T08:26:33.315Z,9.30
2019-03-03T08:31:36.984Z,9.30
2019-03-03T08:36:40.952Z,9.00
2019-03-03T08:41:48.678Z,8.60
2019-03-03T08:47:30.465Z,8.10
2019-03-03T08:52:40.431Z,7.90
2019-03-03T08:58:10.223Z,7.60
2019-03-03T09:03:38.973Z,7.50
2019-03-03T09:09:30.834Z,7.40
2019-03-03T09:15:00.312Z,8.40
2019-03-03T09:20:18.793Z,7.10
2019-03-03T09:25:44.138Z,7.00
2019-03-03T09:31:13.179Z,6.90
2019-03-03T09:36:28.068Z,6.80
2019-03-03T09:42:03.129Z,6.80
2019-03-03T09:47:26.377Z,7.00
2019-03-03T09:52:38.358Z,7.10
2019-03-03T09:58:10.759Z,7.90
2019-03-03T10:03:27.909Z,7.40
2019-03-03T10:08:40.262Z,7.40
2019-03-03T10:13:48.482Z,7.70
2019-03-03T10:19:06.965Z,7.60
2019-03-03T10:24:22.287Z,7.50
2019-03-03T10:30:03.020Z,7.60
2019-03-03T10:35:16.343Z,7.60
2019-03-03T10:40:35.586Z,7.50
2019-03-03T10:45:50.106Z,7.50
2019-03-03T10:51:22.281Z,7.60
2019-03-03T10:56:51.404Z,8.00
2019-03-03T11:02:20.180Z,8.60
2019-03-03T11:07:44.706Z,8.80
2019-03-03T11:12:58.391Z,9.70
2019-03-03T11:18:27.806Z,10.60
2019-03-03T11:23:44.525Z,10.60
2019-03-03T11:29:07.401Z,10.80
2019-03-03T11:34:36.418Z,10.90
2019-03-03T11:39:54.487Z,10.80
2019-03-03T11:45:12.352Z,10.70
2019-03-03T11:50:31.909Z,9.70
2019-03-03T11:55:53.297Z,10.40
2019-03-03T12:01:22.104Z,10.10
2019-03-03T12:06:47.125Z,10.00
2019-03-03T12:12:03.726Z,9.90
2019-03-03T12:17:23.821Z,9.90
2019-03-03T12:22:41.678Z,9.90
2019-03-03T12:28:02.994Z,9.90
2019-03-03T12:33:33.254Z,9.90
2019-03-03T12:38:47.373Z,10.00
2019-03-03T12:44:22.535Z,10.20
2019-03-03T12:49:32.483Z,10.30
2019-03-03T12:55:07.503Z,10.50
2019-03-03T13:00:30.861Z,10.70
2019-03-03T13:06:04.096Z,11.20
2019-03-03T13:11:32.593Z,11.70
2019-03-03T13:16:59.153Z,11.90
2019-03-03T13:22:34.642Z,12.10
2019-03-03T13:27:51.420Z,12.00
2019-03-03T13:38:11.974Z,12.60
2019-03-03T13:43:16.424Z,12.70
2019-03-03T13:48:21.123Z,13.00
2019-03-03T13:53:25.396Z,12.90
2019-03-03T13:58:31.232Z,12.90
2019-03-03T14:03:35.065Z,12.70
2019-03-03T14:08:39.697Z,12.30
2019-03-03T14:13:42.978Z,12.40
2019-03-03T14:18:46.323Z,12.50
2019-03-03T14:23:50.409Z,12.40
2019-03-03T14:28:55.317Z,12.30
2019-03-03T14:34:00.450Z,12.10
2019-03-03T14:39:07.805Z,11.80
2019-03-03T14:44:11.450Z,11.70
2019-03-03T14:49:15.656Z,11.50
2019-03-03T14:54:19.300Z,11.50
2019-03-03T14:59:22.852Z,11.50
2019-03-03T15:04:26.267Z,11.50
2019-03-03T15:09:30.601Z,11.40
2019-03-03T15:14:33.939Z,11.30
2019-03-03T15:19:37.368Z,11.30
2019-03-03T15:24:40.689Z,11.20
2019-03-03T15:29:46.545Z,11.20
2019-03-03T15:34:49.525Z,11.10
2019-03-03T15:39:54.190Z,11.10
2019-03-03T15:44:58.062Z,11.10
2019-03-03T15:50:02.240Z,11.00
2019-03-03T15:55:09.028Z,10.90
2019-03-03T16:00:25.211Z,10.90
2019-03-03T16:05:28.434Z,10.90
2019-03-03T16:10:32.146Z,10.90
2019-03-03T16:15:35.556Z,10.40
2019-03-03T16:20:39.206Z,10.20
2019-03-03T16:25:43.777Z,9.90
2019-03-03T16:30:47.562Z,9.80
2019-03-03T16:35:51.210Z,9.70
2019-03-03T16:40:54.549Z,9.60
2019-03-03T16:45:58.075Z,9.60
2019-03-03T16:51:02.223Z,9.60
2019-03-03T16:56:05.597Z,9.50
2019-03-03T17:01:10.981Z,9.50
2019-03-03T17:06:14.217Z,9.60
2019-03-03T17:11:17.902Z,9.40
2019-03-03T17:16:21.749Z,9.40
2019-03-03T17:21:25.219Z,9.50
2019-03-03T17:26:28.560Z,9.40
2019-03-03T17:31:32.156Z,9.30
2019-03-03T17:36:35.797Z,9.30
2019-03-03T17:41:39.117Z,9.30
2019-03-03T17:46:42.643Z,9.20
2019-03-03T17:51:45.980Z,9.30
2019-03-03T17:56:49.354Z,9.20
2019-03-03T18:01:52.988Z,9.20
2019-03-03T18:06:56.322Z,9.10
2019-03-03T18:16:54.626Z,9.00
2019-03-03T18:21:57.957Z,9.10
2019-03-03T18:27:01.299Z,8.90
2019-03-03T18:32:05.502Z,8.90
2019-03-03T18:37:09.629Z,8.90
2019-03-03T18:42:15.078Z,8.90
2019-03-03T18:47:18.370Z,8.80
2019-03-03T18:52:22.483Z,8.80
2019-03-03T18:57:25.758Z,8.80
2019-03-03T19:02:29.150Z,8.80
2019-03-03T19:07:32.358Z,8.70
2019-03-03T19:12:36.106Z,8.70
2019-03-03T19:17:39.468Z,8.60
2019-03-03T19:22:42.869Z,8.60
2019-03-03T19:27:46.156Z,8.70
2019-03-03T19:33:04.195Z,8.50
2019-03-03T19:38:08.796Z,8.60
2019-03-03T19:43:12.652Z,8.70
2019-03-03T19:48:16.749Z,11.80
2019-03-03T19:53:20.129Z,8.60
2019-03-03T19:58:23.459Z,8.60
2019-03-03T20:03:26.965Z,8.50
2019-03-03T20:08:30.847Z,8.50
2019-03-03T20:13:34.056Z,8.50
2019-03-03T20:18:37.347Z,8.50
2019-03-03T20:23:42.442Z,8.50
2019-03-03T20:28:45.964Z,8.50
2019-03-03T20:33:50.074Z,8.50
2019-03-03T20:38:53.549Z,8.60
2019-03-03T20:43:56.865Z,8.60
2019-03-03T20:49:00.495Z,8.60
2019-03-03T20:54:05.012Z,8.70
2019-03-03T20:59:08.386Z,8.70
2019-03-03T21:04:11.719Z,8.70
2019-03-03T21:09:16.481Z,8.70
2019-03-03T21:14:23.452Z,8.80
2019-03-03T21:19:27.397Z,8.80
2019-03-03T21:24:31.083Z,8.80
2019-03-03T21:29:34.420Z,8.80
2019-03-03T21:34:37.809Z,8.80
2019-03-03T21:39:42.444Z,8.80
2019-03-03T21:44:47.711Z,8.80
2019-03-03T21:49:51.058Z,8.80
2019-03-03T21:54:54.448Z,8.80
2019-03-03T21:59:57.762Z,8.80
2019-03-03T22:05:01.435Z,8.80
2019-03-03T22:10:05.336Z,8.90
2019-03-03T22:15:09.819Z,8.80
2019-03-03T22:20:13.404Z,8.90
2019-03-03T22:25:18.800Z,8.80
2019-03-03T22:30:23.329Z,9.00
2019-03-03T22:35:27.737Z,8.90
2019-03-03T22:40:31.171Z,8.90
2019-03-03T22:45:36.760Z,8.90
2019-03-03T22:50:40.485Z,8.80
2019-03-03T22:55:44.818Z,8.90
2019-03-03T23:00:58.842Z,8.90
2019-03-03T23:06:32.881Z,8.90
2019-03-03T23:12:14.906Z,8.90
2019-03-03T23:18:25.670Z,8.80
2019-03-03T23:24:28.643Z,8.90
2019-03-03T23:29:32.801Z,8.90
2019-03-03T23:34:36.227Z,8.90
2019-03-03T23:39:40.698Z,8.90
2019-03-03T23:44:44.171Z,8.90
2019-03-03T23:49:48.093Z,8.70
2019-03-03T23:54:51.403Z,8.90
2019-03-03T23:59:55.081Z,8.90
